Terminal Aerodrome Forecast
Issued by NWS Atlanta, GA

Home | Current Version | Previous Version | Text Only | Print | Product List | Glossary On
Versions: 1 2 3 4 5 6 7 8 9 10 11 12 13 14 15 16 17 18 19 20
220
FTUS42 KFFC 271728
TAFMCN
TAF
KMCN 271728Z 2718/2818 24005KT P6SM BKN040
     FM272200 27004KT P6SM VCSH BKN060
     FM280500 VRB03KT P6SM FEW050 SCT120
     FM281300 26005KT P6SM VCSH BKN035=

USA.gov is the U.S. government's official web portal to all federal, state and local government web resources and services.